PWSweather.com
Personal Weather Stations
Station Observations
PWSLORIS
The Farm At Fox Bay, Loris, SC 29569

The Farm At Fox BayLoris, SC 29569

Lat: 34.067097, Lon: -78.86907

Elevation: 108

Station Type: Davis Vantage Pro2 with 24 hr. FARS and solar

http://www.lorisweather.com

High Low Average
Temperature 88.0°F31.1°C 71.7°F22.1°C 78.9°F26.1°C
Dew Point 80.7°F27.1°C 71.2°F21.8°C 76.1°F24.5°C
Winds 8.1 mph 13.0 kmh Calm Calm 1.0 mph S1.6 kmh S
Wind Gusts 11.5 mph18.5 kmh -- 2.0 mph3.2 kmh
Humidity 99% 77% 92%
Pressure 30.02 in1016.6 mb 29.92 in1013.2 mb -
Precipitation 0.02 in0.5 mm - -
Hour Temp Dew Point Humidity Winds Wind Gusts Pressure Precip Precip Rate Daily Precip Total
12:00 AM 72.2°F22.3°C 71.6°F22.0°C 98% Calm Calm -- 29.99 in1015.6 mb - 0.00 in0.0 mm 0.00 in0.0 mm
12:15 AM 72.2°F22.3°C 71.6°F22.0°C 98% 2.3 mph S3.7 kmh S 4.6 mph7.4 kmh 30.00 in1015.9 mb - 0.00 in0.0 mm 0.00 in0.0 mm
12:30 AM 72.2°F22.3°C 71.6°F22.0°C 98% 1.2 mph S1.9 kmh S 3.5 mph5.6 kmh 29.99 in1015.6 mb - 0.00 in0.0 mm 0.00 in0.0 mm
12:45 AM 72.2°F22.3°C 71.6°F22.0°C 98% 1.2 mph S1.9 kmh S 3.5 mph5.6 kmh 29.99 in1015.6 mb - 0.00 in0.0 mm 0.00 in0.0 mm
01:00 AM 72.3°F22.4°C 71.7°F22.1°C 98% Calm Calm -- 29.99 in1015.6 mb - 0.00 in0.0 mm 0.00 in0.0 mm
01:15 AM 72.2°F22.3°C 71.6°F22.0°C 98% Calm Calm -- 29.99 in1015.6 mb - 0.00 in0.0 mm 0.00 in0.0 mm
01:30 AM 72.2°F22.3°C 71.6°F22.0°C 98% Calm Calm -- 29.98 in1015.2 mb - 0.00 in0.0 mm 0.00 in0.0 mm
01:45 AM 72.3°F22.4°C 71.7°F22.1°C 98% Calm Calm -- 29.98 in1015.2 mb - 0.00 in0.0 mm 0.00 in0.0 mm
02:00 AM 72.2°F22.3°C 71.6°F22.0°C 98% Calm Calm -- 29.97 in1014.9 mb - 0.00 in0.0 mm 0.00 in0.0 mm
02:15 AM 72.2°F22.3°C 71.6°F22.0°C 98% Calm Calm -- 29.97 in1014.9 mb - 0.00 in0.0 mm 0.00 in0.0 mm
02:30 AM 71.9°F22.2°C 71.3°F21.8°C 98% Calm Calm -- 29.96 in1014.6 mb - 0.00 in0.0 mm 0.00 in0.0 mm
02:45 AM 71.9°F22.2°C 71.3°F21.8°C 98% Calm Calm -- 29.97 in1014.9 mb - 0.00 in0.0 mm 0.00 in0.0 mm
03:00 AM 72.1°F22.3°C 71.5°F21.9°C 98% Calm Calm -- 29.97 in1014.9 mb - 0.00 in0.0 mm 0.00 in0.0 mm
03:15 AM 71.8°F22.1°C 71.2°F21.8°C 98% Calm Calm -- 29.98 in1015.2 mb - 0.00 in0.0 mm 0.00 in0.0 mm
03:30 AM 71.9°F22.2°C 71.3°F21.8°C 98% Calm Calm -- 29.98 in1015.2 mb - 0.00 in0.0 mm 0.00 in0.0 mm
03:45 AM 71.9°F22.2°C 71.6°F22.0°C 99% Calm Calm -- 29.98 in1015.2 mb - 0.00 in0.0 mm 0.00 in0.0 mm
04:00 AM 71.9°F22.2°C 71.6°F22.0°C 99% Calm Calm -- 29.98 in1015.2 mb - 0.00 in0.0 mm 0.00 in0.0 mm
04:15 AM 71.8°F22.1°C 71.5°F21.9°C 99% Calm Calm -- 29.99 in1015.6 mb - 0.00 in0.0 mm 0.00 in0.0 mm
04:30 AM 71.9°F22.2°C 71.6°F22.0°C 99% Calm Calm -- 29.99 in1015.6 mb - 0.00 in0.0 mm 0.00 in0.0 mm
04:45 AM 71.9°F22.2°C 71.6°F22.0°C 99% Calm Calm -- 29.99 in1015.6 mb - 0.00 in0.0 mm 0.00 in0.0 mm
05:00 AM 71.9°F22.2°C 71.6°F22.0°C 99% Calm Calm -- 29.99 in1015.6 mb - 0.00 in0.0 mm 0.00 in0.0 mm
05:15 AM 71.9°F22.2°C 71.6°F22.0°C 99% Calm Calm -- 29.99 in1015.6 mb - 0.00 in0.0 mm 0.00 in0.0 mm
05:30 AM 71.9°F22.2°C 71.6°F22.0°C 99% Calm Calm -- 29.99 in1015.6 mb - 0.00 in0.0 mm 0.00 in0.0 mm
05:45 AM 72.0°F22.2°C 71.7°F22.1°C 99% Calm Calm -- 30.00 in1015.9 mb - 0.00 in0.0 mm 0.00 in0.0 mm
06:00 AM 72.1°F22.3°C 71.8°F22.1°C 99% Calm Calm -- 30.00 in1015.9 mb - 0.00 in0.0 mm 0.00 in0.0 mm
06:15 AM 72.2°F22.3°C 71.9°F22.2°C 99% Calm Calm -- 30.00 in1015.9 mb - 0.00 in0.0 mm 0.00 in0.0 mm
06:30 AM 72.1°F22.3°C 71.8°F22.1°C 99% Calm Calm -- 30.00 in1015.9 mb - 0.00 in0.0 mm 0.00 in0.0 mm
06:45 AM 71.9°F22.2°C 71.6°F22.0°C 99% Calm Calm -- 30.00 in1015.9 mb - 0.00 in0.0 mm 0.00 in0.0 mm
07:00 AM 71.7°F22.1°C 71.4°F21.9°C 99% Calm Calm -- 30.00 in1015.9 mb - 0.00 in0.0 mm 0.00 in0.0 mm
07:15 AM 71.7°F22.1°C 71.4°F21.9°C 99% Calm Calm -- 30.00 in1015.9 mb - 0.00 in0.0 mm 0.00 in0.0 mm
07:30 AM 72.1°F22.3°C 71.8°F22.1°C 99% Calm Calm -- 30.00 in1015.9 mb - 0.00 in0.0 mm 0.00 in0.0 mm
07:45 AM 72.7°F22.6°C 72.4°F22.4°C 99% Calm Calm -- 30.01 in1016.3 mb - 0.01 in0.3 mm 0.01 in0.3 mm
08:00 AM 73.4°F23.0°C 73.1°F22.8°C 99% Calm Calm -- 30.00 in1015.9 mb - 0.00 in0.0 mm 0.01 in0.3 mm
08:15 AM 74.2°F23.4°C 73.9°F23.3°C 99% Calm Calm -- 30.01 in1016.3 mb - 0.00 in0.0 mm 0.01 in0.3 mm
08:30 AM 75.3°F24.1°C 75.0°F23.9°C 99% Calm Calm -- 30.01 in1016.3 mb - 0.00 in0.0 mm 0.01 in0.3 mm
08:45 AM 76.3°F24.6°C 75.7°F24.3°C 98% Calm Calm -- 30.01 in1016.3 mb - 0.00 in0.0 mm 0.01 in0.3 mm
09:00 AM 77.5°F25.3°C 76.6°F24.8°C 97% Calm Calm -- 30.01 in1016.3 mb - 0.00 in0.0 mm 0.01 in0.3 mm
09:15 AM 78.6°F25.9°C 76.7°F24.8°C 94% Calm Calm -- 30.01 in1016.3 mb - 0.00 in0.0 mm 0.01 in0.3 mm
09:30 AM 79.3°F26.3°C 76.7°F24.8°C 92% Calm Calm -- 30.01 in1016.3 mb - 0.00 in0.0 mm 0.01 in0.3 mm
09:45 AM 80.2°F26.8°C 77.0°F25.0°C 90% Calm Calm -- 30.02 in1016.6 mb - 0.00 in0.0 mm 0.01 in0.3 mm
10:00 AM 81.2°F27.3°C 77.6°F25.3°C 89% Calm Calm -- 30.02 in1016.6 mb - 0.00 in0.0 mm 0.01 in0.3 mm
10:15 AM 82.0°F27.8°C 77.4°F25.2°C 86% Calm Calm -- 30.02 in1016.6 mb - 0.00 in0.0 mm 0.01 in0.3 mm
10:30 AM 82.3°F27.9°C 78.0°F25.6°C 87% Calm Calm 2.3 mph3.7 kmh 30.02 in1016.6 mb - 0.00 in0.0 mm 0.01 in0.3 mm
10:45 AM 83.0°F28.3°C 78.1°F25.6°C 85% Calm Calm 1.2 mph1.9 kmh 30.02 in1016.6 mb - 0.00 in0.0 mm 0.01 in0.3 mm
11:00 AM 82.9°F28.3°C 78.0°F25.6°C 85% Calm Calm -- 30.02 in1016.6 mb - 0.00 in0.0 mm 0.01 in0.3 mm
11:15 AM 83.6°F28.7°C 78.6°F25.9°C 85% Calm Calm -- 30.02 in1016.6 mb - 0.00 in0.0 mm 0.01 in0.3 mm
11:30 AM 83.2°F28.4°C 78.2°F25.7°C 85% 2.3 mph S3.7 kmh S 4.6 mph7.4 kmh 30.01 in1016.3 mb - 0.00 in0.0 mm 0.01 in0.3 mm
11:45 AM 84.5°F29.2°C 79.1°F26.2°C 84% Calm Calm -- 30.01 in1016.3 mb - 0.00 in0.0 mm 0.01 in0.3 mm
12:00 PM 84.6°F29.2°C 79.2°F26.2°C 84% Calm Calm -- 30.01 in1016.3 mb - 0.00 in0.0 mm 0.01 in0.3 mm
12:15 PM 86.0°F30.0°C 79.1°F26.2°C 80% Calm Calm 3.5 mph5.6 kmh 30.01 in1016.3 mb - 0.00 in0.0 mm 0.01 in0.3 mm
12:30 PM 86.2°F30.1°C 80.1°F26.7°C 82% Calm Calm -- 30.00 in1015.9 mb - 0.00 in0.0 mm 0.01 in0.3 mm
12:45 PM 85.7°F29.8°C 79.2°F26.2°C 81% Calm Calm -- 30.00 in1015.9 mb - 0.00 in0.0 mm 0.01 in0.3 mm
01:00 PM 88.0°F31.1°C 79.9°F26.6°C 77% 2.3 mph S3.7 kmh S 3.5 mph5.6 kmh 30.00 in1015.9 mb - 0.00 in0.0 mm 0.01 in0.3 mm
01:15 PM 87.3°F30.7°C 80.0°F26.7°C 79% 5.8 mph SSE9.3 kmh SSE 11.5 mph18.5 kmh 29.99 in1015.6 mb - 0.00 in0.0 mm 0.01 in0.3 mm
01:30 PM 86.8°F30.4°C 79.5°F26.4°C 79% 4.6 mph S7.4 kmh S 6.9 mph11.1 kmh 29.99 in1015.6 mb - 0.00 in0.0 mm 0.01 in0.3 mm
01:45 PM 87.7°F30.9°C 80.4°F26.9°C 79% 4.6 mph SE7.4 kmh SE 8.1 mph13.0 kmh 29.99 in1015.6 mb - 0.00 in0.0 mm 0.01 in0.3 mm
02:00 PM 87.6°F30.9°C 80.3°F26.8°C 79% 5.8 mph S9.3 kmh S 9.2 mph14.8 kmh 29.98 in1015.2 mb - 0.00 in0.0 mm 0.01 in0.3 mm
02:15 PM 87.3°F30.7°C 80.0°F26.7°C 79% 5.8 mph SSE9.3 kmh SSE 9.2 mph14.8 kmh 29.97 in1014.9 mb - 0.00 in0.0 mm 0.01 in0.3 mm
02:30 PM 86.6°F30.3°C 79.3°F26.3°C 79% 5.8 mph SE9.3 kmh SE 6.9 mph11.1 kmh 29.96 in1014.6 mb - 0.00 in0.0 mm 0.01 in0.3 mm
02:45 PM 85.8°F29.9°C 78.9°F26.1°C 80% 3.5 mph SSE5.6 kmh SSE 9.2 mph14.8 kmh 29.96 in1014.6 mb - 0.00 in0.0 mm 0.01 in0.3 mm
03:00 PM 84.8°F29.3°C 78.7°F25.9°C 82% 5.8 mph SSE9.3 kmh SSE 4.6 mph7.4 kmh 29.95 in1014.2 mb - 0.00 in0.0 mm 0.01 in0.3 mm
03:15 PM 82.1°F27.8°C 78.5°F25.8°C 89% 1.2 mph S1.9 kmh S 3.5 mph5.6 kmh 29.96 in1014.6 mb - 0.01 in0.3 mm 0.02 in0.5 mm
03:30 PM 80.6°F27.0°C 78.4°F25.8°C 93% Calm Calm -- 29.94 in1013.9 mb - 0.00 in0.0 mm 0.02 in0.5 mm
03:45 PM 80.7°F27.1°C 79.1°F26.2°C 95% Calm Calm -- 29.93 in1013.5 mb - 0.00 in0.0 mm 0.02 in0.5 mm
04:00 PM 83.6°F28.7°C 80.7°F27.1°C 91% 4.6 mph S7.4 kmh S 10.4 mph16.7 kmh 29.93 in1013.5 mb - 0.00 in0.0 mm 0.02 in0.5 mm
04:15 PM 84.3°F29.1°C 79.3°F26.3°C 85% 5.8 mph S9.3 kmh S 11.5 mph18.5 kmh 29.93 in1013.5 mb - 0.00 in0.0 mm 0.02 in0.5 mm
04:30 PM 85.0°F29.4°C 79.7°F26.5°C 84% 5.8 mph S9.3 kmh S 6.9 mph11.1 kmh 29.93 in1013.5 mb - 0.00 in0.0 mm 0.02 in0.5 mm
04:45 PM 85.0°F29.4°C 79.2°F26.2°C 83% 8.1 mph S13.0 kmh S 11.5 mph18.5 kmh 29.92 in1013.2 mb - 0.00 in0.0 mm 0.02 in0.5 mm
05:00 PM 84.3°F29.1°C 78.9°F26.1°C 84% 5.8 mph SSE9.3 kmh SSE 8.1 mph13.0 kmh 29.92 in1013.2 mb - 0.00 in0.0 mm 0.02 in0.5 mm
05:15 PM 83.6°F28.7°C 78.6°F25.9°C 85% 5.8 mph S9.3 kmh S 11.5 mph18.5 kmh 29.92 in1013.2 mb - 0.00 in0.0 mm 0.02 in0.5 mm
05:30 PM 83.2°F28.4°C 78.2°F25.7°C 85% 3.5 mph S5.6 kmh S 6.9 mph11.1 kmh 29.92 in1013.2 mb - 0.00 in0.0 mm 0.02 in0.5 mm
05:45 PM 82.9°F28.3°C 77.9°F25.5°C 85% 3.5 mph S5.6 kmh S 5.8 mph9.3 kmh 29.92 in1013.2 mb - 0.00 in0.0 mm 0.02 in0.5 mm
06:00 PM 82.8°F28.2°C 78.2°F25.7°C 86% 4.6 mph S7.4 kmh S 6.9 mph11.1 kmh 29.92 in1013.2 mb - 0.00 in0.0 mm 0.02 in0.5 mm
06:15 PM 84.0°F28.9°C 78.6°F25.9°C 84% 4.6 mph S7.4 kmh S 4.6 mph7.4 kmh 29.93 in1013.5 mb - 0.00 in0.0 mm 0.02 in0.5 mm
06:30 PM 83.8°F28.8°C 78.5°F25.8°C 84% 4.6 mph S7.4 kmh S 4.6 mph7.4 kmh 29.94 in1013.9 mb - 0.00 in0.0 mm 0.02 in0.5 mm
06:45 PM 83.1°F28.4°C 78.4°F25.8°C 86% 4.6 mph S7.4 kmh S 5.8 mph9.3 kmh 29.94 in1013.9 mb - 0.00 in0.0 mm 0.02 in0.5 mm
07:00 PM 82.4°F28.0°C 78.2°F25.7°C 87% 4.6 mph S7.4 kmh S 4.6 mph7.4 kmh 29.94 in1013.9 mb - 0.00 in0.0 mm 0.02 in0.5 mm
07:15 PM 81.9°F27.7°C 78.0°F25.6°C 88% 3.5 mph S5.6 kmh S 6.9 mph11.1 kmh 29.93 in1013.5 mb - 0.00 in0.0 mm 0.02 in0.5 mm
07:30 PM 81.3°F27.4°C 78.1°F25.6°C 90% Calm Calm -- 29.94 in1013.9 mb - 0.00 in0.0 mm 0.02 in0.5 mm
07:45 PM 80.9°F27.2°C 77.7°F25.4°C 90% 4.6 mph S7.4 kmh S 5.8 mph9.3 kmh 29.94 in1013.9 mb - 0.00 in0.0 mm 0.02 in0.5 mm
08:00 PM 80.6°F27.0°C 77.7°F25.4°C 91% 4.6 mph S7.4 kmh S 8.1 mph13.0 kmh 29.94 in1013.9 mb - 0.00 in0.0 mm 0.02 in0.5 mm
08:15 PM 80.4°F26.9°C 77.5°F25.3°C 91% 4.6 mph S7.4 kmh S 10.4 mph16.7 kmh 29.96 in1014.6 mb - 0.00 in0.0 mm 0.02 in0.5 mm
08:30 PM 80.4°F26.9°C 77.9°F25.5°C 92% Calm Calm -- 29.96 in1014.6 mb - 0.00 in0.0 mm 0.02 in0.5 mm
08:45 PM 80.2°F26.8°C 77.7°F25.4°C 92% 1.2 mph S1.9 kmh S -- 29.96 in1014.6 mb - 0.00 in0.0 mm 0.02 in0.5 mm
09:00 PM 80.0°F26.7°C 77.4°F25.2°C 92% Calm Calm 3.5 mph5.6 kmh 29.96 in1014.6 mb - 0.00 in0.0 mm 0.02 in0.5 mm
09:15 PM 79.8°F26.6°C 77.3°F25.2°C 92% 4.6 mph S7.4 kmh S 6.9 mph11.1 kmh 29.96 in1014.6 mb - 0.00 in0.0 mm 0.02 in0.5 mm
09:30 PM 79.7°F26.5°C 77.5°F25.3°C 93% Calm Calm -- 29.98 in1015.2 mb - 0.00 in0.0 mm 0.02 in0.5 mm
09:45 PM 79.6°F26.4°C 77.4°F25.2°C 93% Calm Calm -- 29.98 in1015.2 mb - 0.00 in0.0 mm 0.02 in0.5 mm
10:00 PM 79.1°F26.2°C 77.2°F25.1°C 94% Calm Calm -- 29.99 in1015.6 mb - 0.00 in0.0 mm 0.02 in0.5 mm
10:15 PM 79.2°F26.2°C 77.6°F25.3°C 95% Calm Calm -- 29.99 in1015.6 mb - 0.00 in0.0 mm 0.02 in0.5 mm
10:30 PM 79.1°F26.2°C 77.2°F25.1°C 94% Calm Calm -- 29.99 in1015.6 mb - 0.00 in0.0 mm 0.02 in0.5 mm
10:45 PM 78.8°F26.0°C 76.9°F24.9°C 94% Calm Calm -- 29.98 in1015.2 mb - 0.00 in0.0 mm 0.02 in0.5 mm
11:00 PM 78.2°F25.7°C 76.6°F24.8°C 95% Calm Calm -- 29.98 in1015.2 mb - 0.00 in0.0 mm 0.02 in0.5 mm
11:15 PM 77.8°F25.4°C 76.6°F24.8°C 96% Calm Calm -- 29.98 in1015.2 mb - 0.00 in0.0 mm 0.02 in0.5 mm
11:30 PM 77.9°F25.5°C 77.0°F25.0°C 97% Calm Calm -- 29.98 in1015.2 mb - 0.00 in0.0 mm 0.02 in0.5 mm
11:45 PM 77.6°F25.3°C 76.6°F24.8°C 97% Calm Calm -- 29.99 in1015.6 mb - 0.00 in0.0 mm 0.02 in0.5 mm